sensor_id;sensor_type;location;lat;lon;timestamp;temperature;humidity
26583;DHT22;14230;45.382;10.998;2022-11-15T00:01:52;8.00;99.90
26583;DHT22;14230;45.382;10.998;2022-11-15T00:04:37;8.00;99.90
26583;DHT22;14230;45.382;10.998;2022-11-15T00:07:23;8.00;99.90
26583;DHT22;14230;45.382;10.998;2022-11-15T00:10:29;7.90;99.90
26583;DHT22;14230;45.382;10.998;2022-11-15T00:13:15;7.80;99.90
26583;DHT22;14230;45.382;10.998;2022-11-15T00:16:01;7.70;99.90
26583;DHT22;14230;45.382;10.998;2022-11-15T00:18:50;7.70;99.90
26583;DHT22;14230;45.382;10.998;2022-11-15T00:21:36;7.70;99.90
26583;DHT22;14230;45.382;10.998;2022-11-15T00:24:22;7.70;99.90
26583;DHT22;14230;45.382;10.998;2022-11-15T00:27:08;7.70;99.90
26583;DHT22;14230;45.382;10.998;2022-11-15T00:29:54;7.80;99.90
26583;DHT22;14230;45.382;10.998;2022-11-15T00:32:40;7.80;99.90
26583;DHT22;14230;45.382;10.998;2022-11-15T00:35:26;7.70;99.90
26583;DHT22;14230;45.382;10.998;2022-11-15T00:38:12;7.60;99.90
26583;DHT22;14230;45.382;10.998;2022-11-15T00:40:58;7.70;99.90
26583;DHT22;14230;45.382;10.998;2022-11-15T00:43:50;7.70;99.90
26583;DHT22;14230;45.382;10.998;2022-11-15T00:46:37;7.70;99.90
26583;DHT22;14230;45.382;10.998;2022-11-15T00:49:23;7.60;99.90
26583;DHT22;14230;45.382;10.998;2022-11-15T00:52:09;7.50;99.90
26583;DHT22;14230;45.382;10.998;2022-11-15T00:54:55;7.50;99.90
26583;DHT22;14230;45.382;10.998;2022-11-15T00:57:41;7.50;99.90
26583;DHT22;14230;45.382;10.998;2022-11-15T01:00:27;7.50;99.90
26583;DHT22;14230;45.382;10.998;2022-11-15T01:03:13;7.40;99.90
26583;DHT22;14230;45.382;10.998;2022-11-15T01:06:00;7.40;99.90
26583;DHT22;14230;45.382;10.998;2022-11-15T01:08:46;7.40;99.90
26583;DHT22;14230;45.382;10.998;2022-11-15T01:11:33;7.30;99.90
26583;DHT22;14230;45.382;10.998;2022-11-15T01:14:19;7.30;99.90
26583;DHT22;14230;45.382;10.998;2022-11-15T01:17:10;7.40;99.90
26583;DHT22;14230;45.382;10.998;2022-11-15T01:19:56;7.40;99.90
26583;DHT22;14230;45.382;10.998;2022-11-15T01:22:42;7.50;99.90
26583;DHT22;14230;45.382;10.998;2022-11-15T01:25:28;7.50;99.90
26583;DHT22;14230;45.382;10.998;2022-11-15T01:28:14;7.40;99.90
26583;DHT22;14230;45.382;10.998;2022-11-15T01:31:05;7.50;99.90
26583;DHT22;14230;45.382;10.998;2022-11-15T01:33:51;7.60;99.90
26583;DHT22;14230;45.382;10.998;2022-11-15T01:36:37;7.50;99.90
26583;DHT22;14230;45.382;10.998;2022-11-15T01:39:23;7.50;99.90
26583;DHT22;14230;45.382;10.998;2022-11-15T01:42:13;7.50;99.90
26583;DHT22;14230;45.382;10.998;2022-11-15T01:44:58;7.50;99.90
26583;DHT22;14230;45.382;10.998;2022-11-15T01:47:52;7.40;99.90
26583;DHT22;14230;45.382;10.998;2022-11-15T01:50:39;7.40;99.90
26583;DHT22;14230;45.382;10.998;2022-11-15T01:53:29;7.40;99.90
26583;DHT22;14230;45.382;10.998;2022-11-15T01:56:19;7.30;99.90
26583;DHT22;14230;45.382;10.998;2022-11-15T01:59:07;7.30;99.90
26583;DHT22;14230;45.382;10.998;2022-11-15T02:01:53;7.40;99.90
26583;DHT22;14230;45.382;10.998;2022-11-15T02:04:45;7.30;99.90
26583;DHT22;14230;45.382;10.998;2022-11-15T02:07:32;7.30;99.90
26583;DHT22;14230;45.382;10.998;2022-11-15T02:10:21;7.30;99.90
26583;DHT22;14230;45.382;10.998;2022-11-15T02:13:07;7.20;99.90
26583;DHT22;14230;45.382;10.998;2022-11-15T02:22:16;6.90;99.90
26583;DHT22;14230;45.382;10.998;2022-11-15T02:31:54;6.90;99.90
26583;DHT22;14230;45.382;10.998;2022-11-15T02:35:07;6.90;99.90
26583;DHT22;14230;45.382;10.998;2022-11-15T02:38:06;6.80;99.90
26583;DHT22;14230;45.382;10.998;2022-11-15T02:40:54;6.70;99.90
26583;DHT22;14230;45.382;10.998;2022-11-15T02:44:07;6.70;99.90
26583;DHT22;14230;45.382;10.998;2022-11-15T02:47:06;6.70;99.90
26583;DHT22;14230;45.382;10.998;2022-11-15T02:50:02;6.60;99.90
26583;DHT22;14230;45.382;10.998;2022-11-15T02:52:51;6.70;99.90
26583;DHT22;14230;45.382;10.998;2022-11-15T02:55:41;6.70;99.90
26583;DHT22;14230;45.382;10.998;2022-11-15T02:58:56;6.70;99.90
26583;DHT22;14230;45.382;10.998;2022-11-15T03:04:58;6.60;99.90
26583;DHT22;14230;45.382;10.998;2022-11-15T03:11:08;6.70;99.90
26583;DHT22;14230;45.382;10.998;2022-11-15T03:13:58;6.70;99.90
26583;DHT22;14230;45.382;10.998;2022-11-15T03:17:12;6.70;99.90
26583;DHT22;14230;45.382;10.998;2022-11-15T03:20:04;6.70;99.90
26583;DHT22;14230;45.382;10.998;2022-11-15T03:22:54;6.90;99.90
26583;DHT22;14230;45.382;10.998;2022-11-15T03:25:46;6.90;99.90
26583;DHT22;14230;45.382;10.998;2022-11-15T03:28:47;6.90;99.90
26583;DHT22;14230;45.382;10.998;2022-11-15T03:31:38;6.80;99.90
26583;DHT22;14230;45.382;10.998;2022-11-15T03:34:40;6.80;99.90
26583;DHT22;14230;45.382;10.998;2022-11-15T03:40:42;7.10;99.90
26583;DHT22;14230;45.382;10.998;2022-11-15T03:43:40;7.10;99.90
26583;DHT22;14230;45.382;10.998;2022-11-15T03:46:40;7.10;99.90
26583;DHT22;14230;45.382;10.998;2022-11-15T03:49:33;7.10;99.90
26583;DHT22;14230;45.382;10.998;2022-11-15T03:52:21;7.10;99.90
26583;DHT22;14230;45.382;10.998;2022-11-15T03:55:10;7.00;99.90
26583;DHT22;14230;45.382;10.998;2022-11-15T03:57:59;7.10;99.90
26583;DHT22;14230;45.382;10.998;2022-11-15T04:00:45;7.00;99.90
26583;DHT22;14230;45.382;10.998;2022-11-15T04:03:31;7.00;99.90
26583;DHT22;14230;45.382;10.998;2022-11-15T04:06:18;7.00;99.90
26583;DHT22;14230;45.382;10.998;2022-11-15T04:09:04;7.00;99.90
26583;DHT22;14230;45.382;10.998;2022-11-15T04:11:50;7.00;99.90
26583;DHT22;14230;45.382;10.998;2022-11-15T04:14:36;7.00;99.90
26583;DHT22;14230;45.382;10.998;2022-11-15T04:17:21;6.90;99.90
26583;DHT22;14230;45.382;10.998;2022-11-15T04:20:42;6.80;99.90
26583;DHT22;14230;45.382;10.998;2022-11-15T04:23:40;6.60;99.90
26583;DHT22;14230;45.382;10.998;2022-11-15T04:26:44;6.50;99.90
26583;DHT22;14230;45.382;10.998;2022-11-15T04:29:30;6.50;99.90
26583;DHT22;14230;45.382;10.998;2022-11-15T04:32:21;6.40;99.90
26583;DHT22;14230;45.382;10.998;2022-11-15T04:35:08;6.40;99.90
26583;DHT22;14230;45.382;10.998;2022-11-15T04:37:55;6.30;99.90
26583;DHT22;14230;45.382;10.998;2022-11-15T04:40:40;6.30;99.90
26583;DHT22;14230;45.382;10.998;2022-11-15T04:43:27;6.40;99.90
26583;DHT22;14230;45.382;10.998;2022-11-15T04:46:13;6.40;99.90
26583;DHT22;14230;45.382;10.998;2022-11-15T04:48:59;6.30;99.90
26583;DHT22;14230;45.382;10.998;2022-11-15T04:51:45;6.30;99.90
26583;DHT22;14230;45.382;10.998;2022-11-15T04:54:31;6.30;99.90
26583;DHT22;14230;45.382;10.998;2022-11-15T04:57:17;6.40;99.90
26583;DHT22;14230;45.382;10.998;2022-11-15T05:00:09;6.40;99.90
26583;DHT22;14230;45.382;10.998;2022-11-15T05:02:56;6.30;99.90
26583;DHT22;14230;45.382;10.998;2022-11-15T05:06:00;6.30;99.90
26583;DHT22;14230;45.382;10.998;2022-11-15T05:08:46;6.30;99.90
26583;DHT22;14230;45.382;10.998;2022-11-15T05:11:31;6.20;99.90
26583;DHT22;14230;45.382;10.998;2022-11-15T05:14:17;6.20;99.90
26583;DHT22;14230;45.382;10.998;2022-11-15T05:17:03;6.20;99.90
26583;DHT22;14230;45.382;10.998;2022-11-15T05:19:48;6.00;99.90
26583;DHT22;14230;45.382;10.998;2022-11-15T05:22:34;5.90;99.90
26583;DHT22;14230;45.382;10.998;2022-11-15T05:25:22;5.80;99.90
26583;DHT22;14230;45.382;10.998;2022-11-15T05:28:08;5.80;99.90
26583;DHT22;14230;45.382;10.998;2022-11-15T05:30:53;5.70;99.90
26583;DHT22;14230;45.382;10.998;2022-11-15T05:33:39;5.70;99.90
26583;DHT22;14230;45.382;10.998;2022-11-15T05:36:31;5.70;99.90
26583;DHT22;14230;45.382;10.998;2022-11-15T05:39:18;5.70;99.90
26583;DHT22;14230;45.382;10.998;2022-11-15T05:42:06;5.70;99.90
26583;DHT22;14230;45.382;10.998;2022-11-15T05:44:52;5.50;99.90
26583;DHT22;14230;45.382;10.998;2022-11-15T05:47:38;5.50;99.90
26583;DHT22;14230;45.382;10.998;2022-11-15T05:50:24;5.50;99.90
26583;DHT22;14230;45.382;10.998;2022-11-15T05:53:10;5.50;99.90
26583;DHT22;14230;45.382;10.998;2022-11-15T05:55:58;5.40;99.90
26583;DHT22;14230;45.382;10.998;2022-11-15T05:58:43;5.50;99.90
26583;DHT22;14230;45.382;10.998;2022-11-15T06:01:29;5.50;99.90
26583;DHT22;14230;45.382;10.998;2022-11-15T06:04:15;5.60;99.90
26583;DHT22;14230;45.382;10.998;2022-11-15T06:07:01;5.60;99.90
26583;DHT22;14230;45.382;10.998;2022-11-15T06:09:47;5.70;99.90
26583;DHT22;14230;45.382;10.998;2022-11-15T06:12:32;5.70;99.90
26583;DHT22;14230;45.382;10.998;2022-11-15T06:15:18;5.80;99.90
26583;DHT22;14230;45.382;10.998;2022-11-15T06:18:03;5.90;99.90
26583;DHT22;14230;45.382;10.998;2022-11-15T06:20:49;6.00;99.90
26583;DHT22;14230;45.382;10.998;2022-11-15T06:23:35;6.00;99.90
26583;DHT22;14230;45.382;10.998;2022-11-15T06:26:20;6.00;99.90
26583;DHT22;14230;45.382;10.998;2022-11-15T06:29:06;6.10;99.90
26583;DHT22;14230;45.382;10.998;2022-11-15T06:31:51;6.10;99.90
26583;DHT22;14230;45.382;10.998;2022-11-15T06:34:38;6.20;99.90
26583;DHT22;14230;45.382;10.998;2022-11-15T06:37:23;6.30;99.90
26583;DHT22;14230;45.382;10.998;2022-11-15T06:40:09;6.30;99.90
26583;DHT22;14230;45.382;10.998;2022-11-15T06:42:58;6.20;99.90
26583;DHT22;14230;45.382;10.998;2022-11-15T06:45:44;6.20;99.90
26583;DHT22;14230;45.382;10.998;2022-11-15T06:48:30;6.30;99.90
26583;DHT22;14230;45.382;10.998;2022-11-15T06:51:16;6.30;99.90
26583;DHT22;14230;45.382;10.998;2022-11-15T06:54:01;6.30;99.90
26583;DHT22;14230;45.382;10.998;2022-11-15T06:56:47;6.40;99.90
26583;DHT22;14230;45.382;10.998;2022-11-15T06:59:33;6.40;99.90
26583;DHT22;14230;45.382;10.998;2022-11-15T07:02:25;6.40;99.90
26583;DHT22;14230;45.382;10.998;2022-11-15T07:05:11;6.30;99.90
26583;DHT22;14230;45.382;10.998;2022-11-15T07:07:57;6.30;99.90
26583;DHT22;14230;45.382;10.998;2022-11-15T07:10:42;6.40;99.90
26583;DHT22;14230;45.382;10.998;2022-11-15T07:13:29;6.50;99.90
26583;DHT22;14230;45.382;10.998;2022-11-15T07:16:19;6.60;99.90
26583;DHT22;14230;45.382;10.998;2022-11-15T07:19:05;6.60;99.90
26583;DHT22;14230;45.382;10.998;2022-11-15T07:21:50;6.70;99.90
26583;DHT22;14230;45.382;10.998;2022-11-15T07:24:36;6.70;99.90
26583;DHT22;14230;45.382;10.998;2022-11-15T07:27:21;6.80;99.90
26583;DHT22;14230;45.382;10.998;2022-11-15T07:30:07;6.80;99.90
26583;DHT22;14230;45.382;10.998;2022-11-15T07:32:57;6.80;99.90
26583;DHT22;14230;45.382;10.998;2022-11-15T07:35:43;6.80;99.90
26583;DHT22;14230;45.382;10.998;2022-11-15T07:38:31;6.90;99.90
26583;DHT22;14230;45.382;10.998;2022-11-15T07:41:24;7.00;99.90
26583;DHT22;14230;45.382;10.998;2022-11-15T07:44:09;7.00;99.90
26583;DHT22;14230;45.382;10.998;2022-11-15T07:46:54;7.00;99.90
26583;DHT22;14230;45.382;10.998;2022-11-15T07:49:40;7.10;99.90
26583;DHT22;14230;45.382;10.998;2022-11-15T07:52:25;7.10;99.90
26583;DHT22;14230;45.382;10.998;2022-11-15T07:55:11;7.20;99.90
26583;DHT22;14230;45.382;10.998;2022-11-15T07:58:03;7.10;99.90
26583;DHT22;14230;45.382;10.998;2022-11-15T08:00:50;7.20;99.90
26583;DHT22;14230;45.382;10.998;2022-11-15T08:03:36;7.40;99.90
26583;DHT22;14230;45.382;10.998;2022-11-15T08:06:21;7.40;99.90
26583;DHT22;14230;45.382;10.998;2022-11-15T08:09:07;7.50;99.90
26583;DHT22;14230;45.382;10.998;2022-11-15T08:11:52;7.50;99.90
26583;DHT22;14230;45.382;10.998;2022-11-15T08:14:37;7.60;99.90
26583;DHT22;14230;45.382;10.998;2022-11-15T08:17:24;7.60;99.90
26583;DHT22;14230;45.382;10.998;2022-11-15T08:20:09;7.60;99.90
26583;DHT22;14230;45.382;10.998;2022-11-15T08:22:56;7.50;99.90
26583;DHT22;14230;45.382;10.998;2022-11-15T08:25:42;7.60;99.90
26583;DHT22;14230;45.382;10.998;2022-11-15T08:28:28;7.60;99.90
26583;DHT22;14230;45.382;10.998;2022-11-15T08:31:15;7.60;99.90
26583;DHT22;14230;45.382;10.998;2022-11-15T08:34:03;7.60;99.90
26583;DHT22;14230;45.382;10.998;2022-11-15T08:36:48;7.60;99.90
26583;DHT22;14230;45.382;10.998;2022-11-15T08:39:34;7.70;99.90
26583;DHT22;14230;45.382;10.998;2022-11-15T08:42:19;7.80;99.90
26583;DHT22;14230;45.382;10.998;2022-11-15T08:45:06;7.90;99.90
26583;DHT22;14230;45.382;10.998;2022-11-15T08:47:52;8.00;99.90
26583;DHT22;14230;45.382;10.998;2022-11-15T08:50:39;8.20;99.90
26583;DHT22;14230;45.382;10.998;2022-11-15T08:53:25;8.40;99.90
26583;DHT22;14230;45.382;10.998;2022-11-15T08:56:11;8.50;99.90
26583;DHT22;14230;45.382;10.998;2022-11-15T08:58:57;8.50;99.90
26583;DHT22;14230;45.382;10.998;2022-11-15T09:01:42;8.60;99.90
26583;DHT22;14230;45.382;10.998;2022-11-15T09:04:29;8.60;99.90
26583;DHT22;14230;45.382;10.998;2022-11-15T09:07:15;8.70;99.90
26583;DHT22;14230;45.382;10.998;2022-11-15T09:10:00;8.80;99.90
26583;DHT22;14230;45.382;10.998;2022-11-15T09:12:47;8.80;99.90
26583;DHT22;14230;45.382;10.998;2022-11-15T09:15:34;8.90;99.90
26583;DHT22;14230;45.382;10.998;2022-11-15T09:18:19;9.00;99.90
26583;DHT22;14230;45.382;10.998;2022-11-15T09:21:08;9.00;99.90
26583;DHT22;14230;45.382;10.998;2022-11-15T09:23:54;9.00;99.90
26583;DHT22;14230;45.382;10.998;2022-11-15T09:26:40;8.90;99.90
26583;DHT22;14230;45.382;10.998;2022-11-15T09:29:26;8.90;99.90
26583;DHT22;14230;45.382;10.998;2022-11-15T09:32:12;8.90;99.90
26583;DHT22;14230;45.382;10.998;2022-11-15T09:34:59;9.00;99.90
26583;DHT22;14230;45.382;10.998;2022-11-15T09:37:44;8.90;99.90
26583;DHT22;14230;45.382;10.998;2022-11-15T09:40:31;9.00;99.90
26583;DHT22;14230;45.382;10.998;2022-11-15T09:43:26;9.10;99.90
26583;DHT22;14230;45.382;10.998;2022-11-15T09:49:09;9.30;99.90
26583;DHT22;14230;45.382;10.998;2022-11-15T09:51:52;9.40;99.90
26583;DHT22;14230;45.382;10.998;2022-11-15T09:54:30;9.50;99.90
26583;DHT22;14230;45.382;10.998;2022-11-15T09:57:20;9.60;99.90
26583;DHT22;14230;45.382;10.998;2022-11-15T09:59:55;9.70;99.90
26583;DHT22;14230;45.382;10.998;2022-11-15T10:04:56;9.80;99.90
26583;DHT22;14230;45.382;10.998;2022-11-15T10:07:27;9.90;99.90
26583;DHT22;14230;45.382;10.998;2022-11-15T10:10:14;9.90;99.90
26583;DHT22;14230;45.382;10.998;2022-11-15T10:12:44;10.00;99.90
26583;DHT22;14230;45.382;10.998;2022-11-15T10:15:15;10.00;99.90
26583;DHT22;14230;45.382;10.998;2022-11-15T10:20:29;10.00;99.90
26583;DHT22;14230;45.382;10.998;2022-11-15T10:23:01;9.80;99.90
26583;DHT22;14230;45.382;10.998;2022-11-15T10:25:29;9.80;99.90
26583;DHT22;14230;45.382;10.998;2022-11-15T10:27:58;9.80;99.90
26583;DHT22;14230;45.382;10.998;2022-11-15T10:30:36;9.80;99.90
26583;DHT22;14230;45.382;10.998;2022-11-15T10:33:19;9.80;99.90
26583;DHT22;14230;45.382;10.998;2022-11-15T10:35:48;9.90;99.90
26583;DHT22;14230;45.382;10.998;2022-11-15T10:38:16;9.90;99.90
26583;DHT22;14230;45.382;10.998;2022-11-15T10:40:43;10.00;99.90
26583;DHT22;14230;45.382;10.998;2022-11-15T10:43:16;10.00;99.90
26583;DHT22;14230;45.382;10.998;2022-11-15T10:45:44;10.00;99.90
26583;DHT22;14230;45.382;10.998;2022-11-15T10:50:42;10.10;99.90
26583;DHT22;14230;45.382;10.998;2022-11-15T10:53:24;10.20;99.90
26583;DHT22;14230;45.382;10.998;2022-11-15T10:55:54;10.20;99.90
26583;DHT22;14230;45.382;10.998;2022-11-15T10:58:33;10.10;99.90
26583;DHT22;14230;45.382;10.998;2022-11-15T11:01:09;10.20;99.90
26583;DHT22;14230;45.382;10.998;2022-11-15T11:03:37;10.30;99.90
26583;DHT22;14230;45.382;10.998;2022-11-15T11:06:15;10.40;99.90
26583;DHT22;14230;45.382;10.998;2022-11-15T11:08:53;10.40;99.90
26583;DHT22;14230;45.382;10.998;2022-11-15T11:11:21;10.50;99.90
26583;DHT22;14230;45.382;10.998;2022-11-15T11:13:48;10.60;99.90
26583;DHT22;14230;45.382;10.998;2022-11-15T11:16:22;10.70;99.90
26583;DHT22;14230;45.382;10.998;2022-11-15T11:19:13;10.70;99.90
26583;DHT22;14230;45.382;10.998;2022-11-15T11:22:01;10.90;99.90
26583;DHT22;14230;45.382;10.998;2022-11-15T11:35:24;10.60;99.90
26583;DHT22;14230;45.382;10.998;2022-11-15T11:37:59;10.50;99.90
26583;DHT22;14230;45.382;10.998;2022-11-15T11:40:40;10.40;99.90
26583;DHT22;14230;45.382;10.998;2022-11-15T11:50:51;10.10;99.90
26583;DHT22;14230;45.382;10.998;2022-11-15T11:55:52;10.00;99.90
26583;DHT22;14230;45.382;10.998;2022-11-15T11:58:21;10.10;99.90
26583;DHT22;14230;45.382;10.998;2022-11-15T12:00:59;10.10;99.90
26583;DHT22;14230;45.382;10.998;2022-11-15T12:05:59;10.20;99.90
26583;DHT22;14230;45.382;10.998;2022-11-15T12:11:09;10.30;99.90
26583;DHT22;14230;45.382;10.998;2022-11-15T12:13:38;10.40;99.90
26583;DHT22;14230;45.382;10.998;2022-11-15T12:16:08;10.50;99.90
26583;DHT22;14230;45.382;10.998;2022-11-15T12:18:39;10.60;99.90
26583;DHT22;14230;45.382;10.998;2022-11-15T12:21:13;10.60;99.90
26583;DHT22;14230;45.382;10.998;2022-11-15T12:23:46;10.70;99.90
26583;DHT22;14230;45.382;10.998;2022-11-15T12:26:20;10.80;99.90
26583;DHT22;14230;45.382;10.998;2022-11-15T12:28:55;10.80;99.90
26583;DHT22;14230;45.382;10.998;2022-11-15T12:34:02;10.90;99.90
26583;DHT22;14230;45.382;10.998;2022-11-15T12:36:37;10.90;99.90
26583;DHT22;14230;45.382;10.998;2022-11-15T12:39:06;10.80;99.90
26583;DHT22;14230;45.382;10.998;2022-11-15T12:41:37;10.70;99.90
26583;DHT22;14230;45.382;10.998;2022-11-15T12:44:10;10.70;99.90
26583;DHT22;14230;45.382;10.998;2022-11-15T13:02:17;10.90;99.90
26583;DHT22;14230;45.382;10.998;2022-11-15T13:04:45;10.90;99.90
26583;DHT22;14230;45.382;10.998;2022-11-15T13:09:58;10.80;99.90
26583;DHT22;14230;45.382;10.998;2022-11-15T13:14:53;10.70;99.90
26583;DHT22;14230;45.382;10.998;2022-11-15T13:20:00;10.70;99.90
26583;DHT22;14230;45.382;10.998;2022-11-15T13:22:37;10.70;99.90
26583;DHT22;14230;45.382;10.998;2022-11-15T13:28:09;10.80;99.90
26583;DHT22;14230;45.382;10.998;2022-11-15T13:30:38;10.70;99.90
26583;DHT22;14230;45.382;10.998;2022-11-15T13:33:08;10.70;99.90
26583;DHT22;14230;45.382;10.998;2022-11-15T13:35:39;10.70;99.90
26583;DHT22;14230;45.382;10.998;2022-11-15T13:38:11;10.70;99.90
26583;DHT22;14230;45.382;10.998;2022-11-15T13:40:44;10.70;99.90
26583;DHT22;14230;45.382;10.998;2022-11-15T13:43:23;10.80;99.90
26583;DHT22;14230;45.382;10.998;2022-11-15T13:46:16;10.90;99.90
26583;DHT22;14230;45.382;10.998;2022-11-15T13:48:45;10.90;99.90
26583;DHT22;14230;45.382;10.998;2022-11-15T13:53:40;11.10;99.90
26583;DHT22;14230;45.382;10.998;2022-11-15T13:56:08;11.10;99.90
26583;DHT22;14230;45.382;10.998;2022-11-15T13:58:37;11.10;99.90
26583;DHT22;14230;45.382;10.998;2022-11-15T14:01:05;11.10;99.90
26583;DHT22;14230;45.382;10.998;2022-11-15T14:03:34;11.10;99.90
26583;DHT22;14230;45.382;10.998;2022-11-15T14:06:06;11.10;99.90
26583;DHT22;14230;45.382;10.998;2022-11-15T14:08:34;11.10;99.90
26583;DHT22;14230;45.382;10.998;2022-11-15T14:11:16;11.10;99.90
26583;DHT22;14230;45.382;10.998;2022-11-15T14:16:36;11.10;99.90
26583;DHT22;14230;45.382;10.998;2022-11-15T14:19:10;11.20;99.90
26583;DHT22;14230;45.382;10.998;2022-11-15T14:21:37;11.20;99.90
26583;DHT22;14230;45.382;10.998;2022-11-15T14:24:29;11.10;99.90
26583;DHT22;14230;45.382;10.998;2022-11-15T14:26:56;11.10;99.90
26583;DHT22;14230;45.382;10.998;2022-11-15T14:29:27;11.00;99.90
26583;DHT22;14230;45.382;10.998;2022-11-15T14:34:41;10.90;99.90
26583;DHT22;14230;45.382;10.998;2022-11-15T14:37:19;10.80;99.90
26583;DHT22;14230;45.382;10.998;2022-11-15T14:39:47;10.80;99.90
26583;DHT22;14230;45.382;10.998;2022-11-15T14:42:14;10.80;99.90
26583;DHT22;14230;45.382;10.998;2022-11-15T14:44:41;10.70;99.90
26583;DHT22;14230;45.382;10.998;2022-11-15T14:47:12;10.70;99.90
26583;DHT22;14230;45.382;10.998;2022-11-15T14:49:40;10.60;99.90
26583;DHT22;14230;45.382;10.998;2022-11-15T14:52:11;10.60;99.90
26583;DHT22;14230;45.382;10.998;2022-11-15T14:54:44;10.70;99.90
26583;DHT22;14230;45.382;10.998;2022-11-15T14:57:11;10.70;99.90
26583;DHT22;14230;45.382;10.998;2022-11-15T14:59:38;10.70;99.90
26583;DHT22;14230;45.382;10.998;2022-11-15T15:02:11;10.70;99.90
26583;DHT22;14230;45.382;10.998;2022-11-15T15:04:40;10.70;99.90
26583;DHT22;14230;45.382;10.998;2022-11-15T15:07:08;10.70;99.90
26583;DHT22;14230;45.382;10.998;2022-11-15T15:09:35;10.70;99.90
26583;DHT22;14230;45.382;10.998;2022-11-15T15:12:02;10.70;99.90
26583;DHT22;14230;45.382;10.998;2022-11-15T15:14:32;10.60;99.90
26583;DHT22;14230;45.382;10.998;2022-11-15T15:16:59;10.60;99.90
26583;DHT22;14230;45.382;10.998;2022-11-15T15:19:27;10.60;99.90
26583;DHT22;14230;45.382;10.998;2022-11-15T15:21:54;10.60;99.90
26583;DHT22;14230;45.382;10.998;2022-11-15T15:24:21;10.50;99.90
26583;DHT22;14230;45.382;10.998;2022-11-15T15:26:49;10.50;99.90
26583;DHT22;14230;45.382;10.998;2022-11-15T15:29:16;10.50;99.90
26583;DHT22;14230;45.382;10.998;2022-11-15T15:31:43;10.40;99.90
26583;DHT22;14230;45.382;10.998;2022-11-15T15:34:11;10.40;99.90
26583;DHT22;14230;45.382;10.998;2022-11-15T15:36:43;10.40;99.90
26583;DHT22;14230;45.382;10.998;2022-11-15T15:39:10;10.30;99.90
26583;DHT22;14230;45.382;10.998;2022-11-15T15:41:38;10.30;99.90
26583;DHT22;14230;45.382;10.998;2022-11-15T15:44:05;10.30;99.90
26583;DHT22;14230;45.382;10.998;2022-11-15T15:46:33;10.30;99.90
26583;DHT22;14230;45.382;10.998;2022-11-15T15:49:01;10.30;99.90
26583;DHT22;14230;45.382;10.998;2022-11-15T15:51:28;10.30;99.90
26583;DHT22;14230;45.382;10.998;2022-11-15T15:53:55;10.20;99.90
26583;DHT22;14230;45.382;10.998;2022-11-15T15:56:25;10.20;99.90
26583;DHT22;14230;45.382;10.998;2022-11-15T15:58:52;10.20;99.90
26583;DHT22;14230;45.382;10.998;2022-11-15T16:01:19;10.30;99.90
26583;DHT22;14230;45.382;10.998;2022-11-15T16:03:47;10.20;99.90
26583;DHT22;14230;45.382;10.998;2022-11-15T16:09:00;10.20;99.90
26583;DHT22;14230;45.382;10.998;2022-11-15T16:11:43;10.20;99.90
26583;DHT22;14230;45.382;10.998;2022-11-15T16:14:10;10.20;99.90
26583;DHT22;14230;45.382;10.998;2022-11-15T16:16:37;10.20;99.90
26583;DHT22;14230;45.382;10.998;2022-11-15T16:19:05;10.20;99.90
26583;DHT22;14230;45.382;10.998;2022-11-15T16:21:32;10.10;99.90
26583;DHT22;14230;45.382;10.998;2022-11-15T16:23:59;10.20;99.90
26583;DHT22;14230;45.382;10.998;2022-11-15T16:26:27;10.20;99.90
26583;DHT22;14230;45.382;10.998;2022-11-15T16:28:55;10.20;99.90
26583;DHT22;14230;45.382;10.998;2022-11-15T16:31:23;10.20;99.90
26583;DHT22;14230;45.382;10.998;2022-11-15T16:33:50;10.20;99.90
26583;DHT22;14230;45.382;10.998;2022-11-15T16:36:24;10.10;99.90
26583;DHT22;14230;45.382;10.998;2022-11-15T16:38:57;10.20;99.90
26583;DHT22;14230;45.382;10.998;2022-11-15T16:41:24;10.20;99.90
26583;DHT22;14230;45.382;10.998;2022-11-15T16:43:52;10.20;99.90
26583;DHT22;14230;45.382;10.998;2022-11-15T16:46:23;10.20;99.90
26583;DHT22;14230;45.382;10.998;2022-11-15T16:48:51;10.30;99.90
26583;DHT22;14230;45.382;10.998;2022-11-15T16:51:18;10.30;99.90
26583;DHT22;14230;45.382;10.998;2022-11-15T16:53:46;10.20;99.90
26583;DHT22;14230;45.382;10.998;2022-11-15T16:58:48;10.30;99.90
26583;DHT22;14230;45.382;10.998;2022-11-15T17:01:16;10.30;99.90
26583;DHT22;14230;45.382;10.998;2022-11-15T17:03:44;10.20;99.90
26583;DHT22;14230;45.382;10.998;2022-11-15T17:06:12;10.30;99.90
26583;DHT22;14230;45.382;10.998;2022-11-15T17:08:40;10.20;99.90
26583;DHT22;14230;45.382;10.998;2022-11-15T17:11:07;10.20;99.90
26583;DHT22;14230;45.382;10.998;2022-11-15T17:13:35;10.30;99.90
26583;DHT22;14230;45.382;10.998;2022-11-15T17:16:03;10.20;99.90
26583;DHT22;14230;45.382;10.998;2022-11-15T17:18:30;10.20;99.90
26583;DHT22;14230;45.382;10.998;2022-11-15T17:21:02;10.20;99.90
26583;DHT22;14230;45.382;10.998;2022-11-15T17:23:29;10.20;99.90
26583;DHT22;14230;45.382;10.998;2022-11-15T17:25:58;10.30;99.90
26583;DHT22;14230;45.382;10.998;2022-11-15T17:28:45;10.30;99.90
26583;DHT22;14230;45.382;10.998;2022-11-15T17:31:13;10.30;99.90
26583;DHT22;14230;45.382;10.998;2022-11-15T17:33:40;10.30;99.90
26583;DHT22;14230;45.382;10.998;2022-11-15T17:36:09;10.30;99.90
26583;DHT22;14230;45.382;10.998;2022-11-15T17:38:40;10.20;99.90
26583;DHT22;14230;45.382;10.998;2022-11-15T17:41:13;10.20;99.90
26583;DHT22;14230;45.382;10.998;2022-11-15T17:43:41;10.20;99.90
26583;DHT22;14230;45.382;10.998;2022-11-15T17:46:18;10.20;99.90
26583;DHT22;14230;45.382;10.998;2022-11-15T17:48:47;10.20;99.90
26583;DHT22;14230;45.382;10.998;2022-11-15T17:51:15;10.20;99.90
26583;DHT22;14230;45.382;10.998;2022-11-15T17:53:43;10.20;99.90
26583;DHT22;14230;45.382;10.998;2022-11-15T17:56:12;10.20;99.90
26583;DHT22;14230;45.382;10.998;2022-11-15T17:58:40;10.20;99.90
26583;DHT22;14230;45.382;10.998;2022-11-15T18:03:41;10.20;99.90
26583;DHT22;14230;45.382;10.998;2022-11-15T18:06:09;10.20;99.90
26583;DHT22;14230;45.382;10.998;2022-11-15T18:08:37;10.20;99.90
26583;DHT22;14230;45.382;10.998;2022-11-15T18:13:38;10.20;99.90
26583;DHT22;14230;45.382;10.998;2022-11-15T18:16:07;10.20;99.90
26583;DHT22;14230;45.382;10.998;2022-11-15T18:18:34;10.20;99.90
26583;DHT22;14230;45.382;10.998;2022-11-15T18:23:33;10.20;99.90
26583;DHT22;14230;45.382;10.998;2022-11-15T18:26:01;10.20;99.90
26583;DHT22;14230;45.382;10.998;2022-11-15T18:28:30;10.20;99.90
26583;DHT22;14230;45.382;10.998;2022-11-15T18:30:58;10.20;99.90
26583;DHT22;14230;45.382;10.998;2022-11-15T18:33:26;10.10;99.90
26583;DHT22;14230;45.382;10.998;2022-11-15T18:35:58;10.10;99.90